Terminal Aerodrome Forecast
Issued by NWS

Home | Current Version | Previous Version | Graphics & Text | Print | Product List | Glossary Off
Versions: 1 2 3 4 5 6 7 8 9 10 11 12 13 14 15 16 17 18 19 20 21 22 23 24 25

720
FTUS43 KLOT 280915 AAA
TAFDPA
TAF AMD
KDPA 280915Z 2809/0106 17011KT 6SM BR BKN015 OVC035
     FM281300 17011KT 4SM -SHRA BR OVC012
     FM281500 19012G17KT P6SM SCT008 BKN015
     FM282000 20013G20KT P6SM VCSH BKN020 PROB30 2821/0101 4SM -TSRA
      BKN015CB
     FM010100 20014G22KT 4SM -TSRA BR BKN012CB OVC025
      TEMPO 0102/0106 2SM TSRA BR BKN008CB=

USA.gov is the U.S. government's official web portal to all federal, state and local government web resources and services.